Time;durP1;ratioP1;P1;durP2;ratioP2;P2;SDS_P1;SDS_P2;PMS_P1;PMS_P2;Temp;Humidity;BMP_temperature;BMP_pressure;BME280_temperature;BME280_humidity;BME280_pressure;Samples;Min_cycle;Max_cycle;Signal;HPM_P1;HPM_P2
2022/10/19 00:02:20;;;;;;;8.73;6.03;;;;;;;11.42;49.67;100334.50;5068734;28;20105;-41
2022/10/19 00:04:45;;;;;;;10.63;5.95;;;;;;;11.44;48.57;100331.66;5067283;28;20124;-42
2022/10/19 00:07:11;;;;;;;10.73;5.93;;;;;;;11.17;49.10;100315.47;5068681;28;20017;-41
2022/10/19 00:09:36;;;;;;;13.73;6.18;;;;;;;10.95;48.85;100320.84;5068458;28;20097;-42
2022/10/19 00:12:02;;;;;;;8.40;5.90;;;;;;;11.00;49.04;100322.09;5068652;28;20531;-42
2022/10/19 00:14:27;;;;;;;10.15;6.13;;;;;;;10.97;49.29;100318.00;5068190;28;20100;-43
2022/10/19 00:16:54;;;;;;;11.45;6.32;;;;;;;11.00;49.27;100314.94;5068036;28;20024;-42
2022/10/19 00:19:25;;;;;;;10.35;6.15;;;;;;;10.93;48.87;100306.91;5068106;28;20129;-43
2022/10/19 00:21:51;;;;;;;8.25;5.93;;;;;;;11.00;48.55;100308.78;5067919;28;20103;-42
2022/10/19 00:24:16;;;;;;;9.75;5.80;;;;;;;10.72;49.21;100298.94;5068253;28;20488;-42
2022/10/19 00:26:42;;;;;;;10.63;6.05;;;;;;;10.85;49.41;100283.06;5067920;28;20027;-43
2022/10/19 00:29:07;;;;;;;9.75;5.90;;;;;;;11.13;48.98;100292.91;5068103;28;20074;-43
2022/10/19 00:31:33;;;;;;;9.73;5.57;;;;;;;11.06;48.34;100284.88;5067958;28;20457;-43
2022/10/19 00:33:59;;;;;;;12.18;5.93;;;;;;;11.02;49.00;100286.25;5068446;28;20021;-43
2022/10/19 00:36:28;;;;;;;10.40;5.72;;;;;;;11.04;49.01;100280.75;5067826;28;20140;-43
2022/10/19 00:38:55;;;;;;;8.43;5.75;;;;;;;10.98;48.82;100266.34;5068360;28;20024;-43
2022/10/19 00:41:23;;;;;;;10.15;6.00;;;;;;;10.73;49.93;100279.28;5068732;28;20021;-44
2022/10/19 00:43:58;;;;;;;8.90;5.93;;;;;;;10.73;49.20;100273.94;5069136;28;20052;-42
2022/10/19 00:46:25;;;;;;;8.82;5.60;;;;;;;10.50;50.05;100277.63;5069186;28;20086;-42
2022/10/19 00:48:54;;;;;;;9.27;6.00;;;;;;;10.36;49.99;100266.03;5068845;28;20098;-42
2022/10/19 00:51:21;;;;;;;7.93;5.25;;;;;;;10.38;50.08;100265.84;5072444;28;20068;-42
2022/10/19 00:53:46;;;;;;;8.82;5.50;;;;;;;10.00;50.67;100257.22;5072781;28;20089;-43
2022/10/19 00:56:14;;;;;;;9.00;5.20;;;;;;;10.15;50.47;100248.19;5072627;28;20028;-43
2022/10/19 00:58:41;;;;;;;8.52;5.10;;;;;;;10.39;49.71;100248.84;5072195;28;20431;-43
2022/10/19 01:01:08;;;;;;;9.50;5.10;;;;;;;10.31;49.66;100251.66;5072412;28;20399;-41
2022/10/19 01:03:34;;;;;;;8.43;5.20;;;;;;;10.39;49.74;100248.03;5072535;28;20035;-42
2022/10/19 01:05:59;;;;;;;8.65;5.00;;;;;;;10.40;49.17;100252.38;5072488;28;20028;-42
2022/10/19 01:08:26;;;;;;;8.65;4.85;;;;;;;10.46;49.17;100241.75;5072265;28;20283;-42
2022/10/19 01:11:17;;;;;;;6.55;4.63;;;;;;;10.47;49.48;100239.91;5072326;28;20028;-42
2022/10/19 01:13:57;;;;;;;7.82;4.80;;;;;;;10.76;48.47;100237.13;5070295;28;20048;-42
2022/10/19 01:16:37;;;;;;;8.65;5.22;;;;;;;10.87;48.56;100235.78;5072101;28;20056;-42
2022/10/19 01:19:33;;;;;;;9.48;4.90;;;;;;;10.87;47.78;100227.78;5071984;28;20086;-42
2022/10/19 01:22:07;;;;;;;8.13;5.20;;;;;;;10.65;48.54;100232.31;5072201;28;20419;-42
2022/10/19 01:25:06;;;;;;;6.82;5.05;;;;;;;10.78;47.54;100222.81;5072022;28;20032;-42
2022/10/19 01:27:52;;;;;;;7.25;5.07;;;;;;;10.72;47.92;100219.06;5071416;28;20647;-43
2022/10/19 01:30:50;;;;;;;6.72;4.80;;;;;;;10.70;48.44;100223.75;5072120;28;20143;-42
2022/10/19 01:33:27;;;;;;;8.40;5.00;;;;;;;10.71;48.46;100217.41;5072089;28;20051;-42
2022/10/19 01:36:13;;;;;;;8.30;5.35;;;;;;;10.58;48.93;100218.13;5071414;28;20706;-41
2022/10/19 01:38:44;;;;;;;9.80;5.38;;;;;;;10.31;49.04;100215.22;5067010;28;20457;-43
2022/10/19 01:41:13;;;;;;;9.13;5.07;;;;;;;10.14;49.42;100211.94;5071580;28;20139;-41
2022/10/19 01:43:41;;;;;;;8.25;5.00;;;;;;;10.44;49.23;100211.88;5071694;28;20035;-41
2022/10/19 01:46:16;;;;;;;9.77;5.28;;;;;;;10.49;48.86;100212.13;5071508;28;20036;-42
2022/10/19 01:48:50;;;;;;;8.18;4.82;;;;;;;10.46;48.89;100204.50;5071246;28;20020;-41
2022/10/19 01:51:27;;;;;;;10.07;5.53;;;;;;;10.62;48.67;100207.91;5071525;28;20025;-41
2022/10/19 01:53:56;;;;;;;9.93;5.20;;;;;;;10.78;48.16;100202.31;5071338;28;20081;-41
2022/10/19 01:56:26;;;;;;;7.13;4.80;;;;;;;10.90;47.34;100199.94;5070938;28;20017;-41
2022/10/19 01:58:55;;;;;;;8.27;5.45;;;;;;;10.95;47.83;100209.00;5071036;28;20088;-42
2022/10/19 02:01:23;;;;;;;8.57;5.03;;;;;;;10.90;47.96;100189.28;5068966;28;20107;-41
2022/10/19 02:03:50;;;;;;;8.90;5.50;;;;;;;10.94;47.45;100187.88;5071358;28;20025;-41
2022/10/19 02:06:16;;;;;;;9.20;5.97;;;;;;;10.98;47.50;100198.97;5070944;28;20481;-41
2022/10/19 02:08:47;;;;;;;11.95;5.60;;;;;;;10.76;48.61;100188.38;5071257;28;20024;-41
2022/10/19 02:11:14;;;;;;;9.90;5.45;;;;;;;10.73;48.75;100183.44;5070977;28;20063;-41
2022/10/19 02:13:41;;;;;;;8.30;5.10;;;;;;;10.51;48.85;100190.66;5070881;28;20033;-42
2022/10/19 02:16:13;;;;;;;10.48;6.05;;;;;;;10.47;48.91;100187.56;5070940;28;20148;-42
2022/10/19 02:18:45;;;;;;;7.70;4.90;;;;;;;10.24;49.16;100155.78;5070631;28;20024;-42
2022/10/19 02:21:11;;;;;;;9.40;5.57;;;;;;;10.61;48.52;100175.16;5070253;28;20037;-41
2022/10/19 02:23:37;;;;;;;8.45;5.20;;;;;;;10.46;49.00;100172.59;5069796;28;20109;-41
2022/10/19 02:26:03;;;;;;;7.97;5.10;;;;;;;10.47;49.25;100176.06;5070841;28;20043;-42
2022/10/19 02:28:29;;;;;;;10.55;5.32;;;;;;;10.48;49.22;100178.53;5070216;28;20027;-42
2022/10/19 02:30:56;;;;;;;11.02;5.32;;;;;;;10.49;48.74;100180.19;5070691;28;20032;-41
2022/10/19 02:33:21;;;;;;;12.50;5.40;;;;;;;10.54;48.91;100168.97;5070108;28;20020;-42
2022/10/19 02:35:47;;;;;;;9.23;5.25;;;;;;;10.37;49.40;100171.88;5070229;28;20021;-42
2022/10/19 02:38:16;;;;;;;12.48;5.10;;;;;;;10.31;48.56;100172.66;5070221;28;20031;-42
2022/10/19 02:40:48;;;;;;;;;;;;;;;10.48;48.53;100175.06;5070204;28;20077;-43
2022/10/19 02:43:18;;;;;;;7.47;5.00;;;;;;;10.32;48.79;100163.69;5070332;28;19908;-42
2022/10/19 02:45:53;;;;;;;8.43;4.75;;;;;;;10.19;48.75;100166.19;5070395;28;20059;-41
2022/10/19 02:48:22;;;;;;;7.85;5.28;;;;;;;10.04;48.72;100162.78;5070322;28;20035;-43
2022/10/19 02:50:47;;;;;;;7.88;5.47;;;;;;;10.15;48.12;100152.44;5070288;28;20035;-42
2022/10/19 02:53:14;;;;;;;7.15;4.93;;;;;;;10.17;48.41;100163.72;5070512;28;20115;-43
2022/10/19 02:55:40;;;;;;;7.45;5.18;;;;;;;10.08;47.89;100158.72;5070256;28;20092;-42
2022/10/19 02:58:05;;;;;;;8.70;5.00;;;;;;;10.12;48.11;100147.50;5070131;28;20024;-43
2022/10/19 03:00:31;;;;;;;13.05;5.32;;;;;;;9.91;48.96;100147.50;5069724;28;20138;-42
2022/10/19 03:02:56;;;;;;;8.07;5.20;;;;;;;9.88;48.93;100153.19;5070302;28;20021;-42
2022/10/19 03:05:22;;;;;;;8.63;5.20;;;;;;;10.01;49.46;100152.50;5070445;28;20024;-42
2022/10/19 03:07:47;;;;;;;9.63;5.43;;;;;;;10.13;48.88;100151.00;5069141;28;20446;-43
2022/10/19 03:10:12;;;;;;;8.90;5.25;;;;;;;10.04;49.94;100146.81;5069517;28;20031;-41
2022/10/19 03:12:38;;;;;;;10.60;5.25;;;;;;;9.93;49.78;100143.63;5068990;28;20021;-41
2022/10/19 03:15:04;;;;;;;7.13;4.80;;;;;;;9.77;49.44;100143.88;5069601;28;20028;-41
2022/10/19 03:17:29;;;;;;;7.75;5.35;;;;;;;9.73;49.97;100140.78;5068383;28;20102;-42
2022/10/19 03:19:55;;;;;;;8.40;5.30;;;;;;;9.85;49.25;100143.75;5069562;28;20107;-42
2022/10/19 03:22:20;;;;;;;8.57;5.18;;;;;;;9.88;49.51;100142.56;5069323;28;20053;-42
2022/10/19 03:24:46;;;;;;;8.07;5.47;;;;;;;10.01;49.53;100142.69;5069959;28;20032;-42
2022/10/19 03:27:11;;;;;;;10.77;5.05;;;;;;;9.78;50.49;100133.03;5069761;28;20028;-42
2022/10/19 03:29:37;;;;;;;7.60;4.60;;;;;;;9.93;50.02;100134.84;5069621;28;20032;-42
2022/10/19 03:32:02;;;;;;;6.93;4.80;;;;;;;9.61;50.35;100136.94;5069811;28;20024;-42
2022/10/19 03:34:28;;;;;;;11.05;5.15;;;;;;;9.73;49.93;100138.13;5069161;28;20081;-42
2022/10/19 03:36:53;;;;;;;9.13;5.20;;;;;;;9.73;50.35;100130.16;5068925;28;20028;-42
2022/10/19 03:39:18;;;;;;;8.45;4.60;;;;;;;9.68;50.47;100137.03;5069312;28;20032;-42
2022/10/19 03:41:44;;;;;;;8.88;4.95;;;;;;;9.86;50.04;100128.63;5069497;28;20024;-42
2022/10/19 03:44:10;;;;;;;9.02;5.20;;;;;;;9.76;50.55;100126.28;5069752;28;20078;-42
2022/10/19 03:46:36;;;;;;;10.63;4.90;;;;;;;9.83;50.81;100131.69;5069699;28;20027;-42
2022/10/19 03:49:03;;;;;;;8.15;4.65;;;;;;;9.95;50.17;100125.66;5069341;28;20059;-41
2022/10/19 03:51:30;;;;;;;7.88;5.00;;;;;;;10.08;49.96;100122.31;5069429;28;20069;-41
2022/10/19 03:54:02;;;;;;;9.13;4.90;;;;;;;10.06;49.42;100126.19;5069735;28;20020;-42
2022/10/19 03:56:29;;;;;;;11.30;4.78;;;;;;;9.88;49.73;100123.94;5068867;28;20033;-43
2022/10/19 03:58:57;;;;;;;7.60;4.70;;;;;;;10.08;49.28;100124.97;5069995;28;20028;-47
2022/10/19 04:01:25;;;;;;;9.65;4.63;;;;;;;10.03;49.05;100118.56;5069452;28;20035;-43
2022/10/19 04:03:55;;;;;;;8.50;5.38;;;;;;;10.02;49.28;100123.06;5070553;28;20024;-41
2022/10/19 04:06:23;;;;;;;;;;;;;;;10.13;49.27;100125.22;5070100;28;20021;-41
2022/10/19 04:08:49;;;;;;;37.03;20.30;;;;;;;9.97;49.02;100114.84;5069494;28;19908;-41
2022/10/19 04:11:21;;;;;;;41.90;20.55;;;;;;;9.84;51.72;100122.69;5069380;28;20389;-40
2022/10/19 04:13:53;;;;;;;45.72;22.48;;;;;;;10.26;54.30;100115.69;5069301;28;20036;-41
2022/10/19 04:16:20;;;;;;;13.15;7.47;;;;;;;10.44;50.20;100110.75;5069446;28;20487;-42
2022/10/19 04:18:46;;;;;;;7.68;5.32;;;;;;;10.36;49.22;100111.72;5069549;28;20029;-42
2022/10/19 04:21:25;;;;;;;13.32;5.53;;;;;;;10.20;48.90;100113.81;5069596;28;20057;-41
2022/10/19 04:23:55;;;;;;;12.38;5.35;;;;;;;10.04;49.48;100112.25;5069508;28;20028;-42
2022/10/19 04:26:21;;;;;;;10.23;4.82;;;;;;;9.96;49.37;100110.53;5073388;28;20024;-42
2022/10/19 04:28:46;;;;;;;9.02;5.53;;;;;;;9.96;56.76;100111.34;5073207;28;20032;-41
2022/10/19 04:31:12;;;;;;;10.85;7.00;;;;;;;10.40;65.03;100101.53;5066680;28;20021;-44
2022/10/19 04:33:38;;;;;;;13.57;8.70;;;;;;;11.07;66.56;100097.41;5053174;28;20396;-41
2022/10/19 04:36:06;;;;;;;10.43;5.45;;;;;;;11.30;54.81;100096.28;5064431;28;20021;-43
2022/10/19 04:38:32;;;;;;;10.38;5.50;;;;;;;11.63;51.66;100087.53;5073751;28;20109;-42
2022/10/19 04:41:10;;;;;;;16.42;5.90;;;;;;;11.96;55.80;100097.50;5073589;28;20107;-43
2022/10/19 04:43:36;;;;;;;12.02;5.60;;;;;;;12.07;53.35;100092.38;5073999;28;20017;-41
2022/10/19 04:46:13;;;;;;;11.95;5.63;;;;;;;12.25;53.82;100086.41;5073060;28;20082;-42
2022/10/19 04:48:39;;;;;;;10.65;5.32;;;;;;;12.26;49.92;100082.72;5072076;28;20111;-41
2022/10/19 04:51:05;;;;;;;12.73;5.47;;;;;;;12.57;51.24;100083.09;5071839;28;20211;-42
2022/10/19 04:53:32;;;;;;;16.35;5.68;;;;;;;12.68;48.85;100079.81;5070520;28;20029;-42
2022/10/19 04:55:58;;;;;;;11.25;5.50;;;;;;;12.74;47.87;100084.31;5071904;28;20089;-42
2022/10/19 04:58:24;;;;;;;9.05;5.45;;;;;;;12.85;45.63;100080.97;5072632;28;20020;-42
2022/10/19 05:00:49;;;;;;;12.98;5.38;;;;;;;12.68;44.15;100085.13;5070957;28;20408;-41
2022/10/19 05:03:15;;;;;;;13.73;7.55;;;;;;;12.61;44.73;100079.00;5070668;28;20089;-41
2022/10/19 05:05:40;;;;;;;14.23;7.20;;;;;;;12.44;46.12;100082.09;5070831;28;20021;-41
2022/10/19 05:08:06;;;;;;;14.20;6.70;;;;;;;12.39;46.32;100067.72;5070665;28;20031;-41
2022/10/19 05:10:31;;;;;;;11.30;6.25;;;;;;;12.55;45.57;100085.97;5070695;28;20035;-41
2022/10/19 05:12:59;;;;;;;11.30;5.60;;;;;;;12.57;45.17;100083.09;5070852;28;20020;-41
2022/10/19 05:15:24;;;;;;;13.38;5.95;;;;;;;12.68;45.02;100080.63;5071424;28;20555;-42
2022/10/19 05:17:50;;;;;;;9.50;5.60;;;;;;;12.69;44.18;100078.75;5072203;28;20107;-44
2022/10/19 05:20:15;;;;;;;14.90;5.72;;;;;;;12.91;44.59;100066.78;5072308;28;20086;-41
2022/10/19 05:22:40;;;;;;;8.35;5.53;;;;;;;13.26;43.72;100085.13;5072186;28;20053;-43
2022/10/19 05:25:06;;;;;;;20.52;9.02;;;;;;;13.62;42.19;100065.03;5072359;28;20093;-44
2022/10/19 05:27:32;;;;;;;11.55;5.70;;;;;;;13.88;41.66;100082.75;5072366;28;20020;-43
2022/10/19 05:29:58;;;;;;;11.27;5.20;;;;;;;14.19;40.76;100091.78;5069477;28;20139;-43
2022/10/19 05:32:23;;;;;;;9.10;4.90;;;;;;;14.08;41.14;100085.25;5065860;28;20035;-43
2022/10/19 05:34:49;;;;;;;9.70;5.20;;;;;;;14.45;40.11;100082.69;5070307;28;20036;-43
2022/10/19 05:37:17;;;;;;;11.13;5.05;;;;;;;14.79;39.42;100091.25;5070327;28;20017;-45
2022/10/19 05:39:42;;;;;;;11.02;5.18;;;;;;;14.72;39.08;100097.72;5071467;28;20456;-43
2022/10/19 05:42:08;;;;;;;8.70;4.57;;;;;;;15.04;38.72;100091.16;5071240;28;20040;-45
2022/10/19 05:44:34;;;;;;;8.10;5.03;;;;;;;15.59;37.58;100087.59;5071373;28;20024;-42
2022/10/19 05:47:00;;;;;;;9.98;5.03;;;;;;;15.91;38.02;100091.88;5071253;28;20127;-42
2022/10/19 05:49:25;;;;;;;10.57;4.95;;;;;;;16.31;37.00;100092.06;5070902;28;20020;-43
2022/10/19 05:51:51;;;;;;;11.00;5.50;;;;;;;16.73;35.01;100093.81;5071475;28;20024;-42
2022/10/19 05:54:17;;;;;;;13.23;5.55;;;;;;;16.93;35.88;100088.91;5071663;28;20028;-43
2022/10/19 05:56:43;;;;;;;13.27;5.70;;;;;;;17.10;35.01;100080.09;5071379;28;20020;-42
2022/10/19 05:59:13;;;;;;;11.70;6.75;;;;;;;17.64;34.28;100095.91;5071368;28;20020;-43
2022/10/19 06:01:38;;;;;;;10.02;5.72;;;;;;;18.14;33.28;100097.88;5070901;28;20017;-46
2022/10/19 06:04:05;;;;;;;23.75;9.77;;;;;;;18.56;32.70;100092.03;5070820;28;20028;-42
2022/10/19 06:06:30;;;;;;;15.25;6.68;;;;;;;18.75;32.12;100092.56;5069924;28;20500;-44
2022/10/19 06:08:57;;;;;;;10.23;5.10;;;;;;;18.88;31.81;100096.81;5068930;28;20025;-44
2022/10/19 06:11:33;;;;;;;13.48;5.65;;;;;;;19.18;31.38;100091.00;5069325;28;20029;-42
2022/10/19 06:14:01;;;;;;;19.35;7.60;;;;;;;18.95;31.87;100090.19;5069199;28;20154;-41
2022/10/19 06:16:28;;;;;;;15.43;6.65;;;;;;;19.44;30.95;100085.88;5069381;28;20107;-44
2022/10/19 06:18:55;;;;;;;11.02;6.72;;;;;;;19.81;30.57;100087.91;5068859;28;20069;-45
2022/10/19 06:21:23;;;;;;;15.68;7.43;;;;;;;20.14;29.80;100089.50;5069292;28;20048;-41
2022/10/19 06:23:50;;;;;;;13.63;7.13;;;;;;;20.17;29.61;100094.41;5069774;28;20483;-42
2022/10/19 06:26:15;;;;;;;15.18;7.95;;;;;;;20.46;29.47;100094.06;5070655;28;20404;-42
2022/10/19 06:28:42;;;;;;;11.15;6.15;;;;;;;20.65;28.72;100091.78;5070425;28;20028;-43
2022/10/19 06:31:08;;;;;;;11.77;5.60;;;;;;;21.05;28.87;100083.06;5070299;28;20605;-42
2022/10/19 06:33:34;;;;;;;13.95;5.38;;;;;;;21.21;27.87;100083.94;5070302;28;20097;-43
2022/10/19 06:36:14;;;;;;;11.98;5.25;;;;;;;21.49;28.06;100079.16;5070504;28;20115;-42
2022/10/19 06:38:40;;;;;;;7.95;4.50;;;;;;;21.80;27.20;100079.19;5070179;28;20027;-42
2022/10/19 06:41:06;;;;;;;9.02;5.10;;;;;;;22.18;26.81;100086.00;5069937;28;20483;-42
2022/10/19 06:43:33;;;;;;;9.18;5.00;;;;;;;22.22;26.35;100070.00;5069957;28;20083;-41
2022/10/19 06:46:02;;;;;;;14.32;5.32;;;;;;;22.62;26.03;100079.16;5070297;28;20017;-44
2022/10/19 06:48:27;;;;;;;13.60;4.88;;;;;;;22.83;25.53;100069.88;5069588;28;20039;-47
2022/10/19 06:50:57;;;;;;;10.82;4.72;;;;;;;22.69;25.64;100071.53;5069956;28;20036;-41
2022/10/19 06:53:23;;;;;;;9.75;4.75;;;;;;;22.67;25.86;100070.19;5070050;28;20044;-42
2022/10/19 06:55:48;;;;;;;11.40;5.30;;;;;;;22.87;25.65;100059.28;5069837;28;20066;-43
2022/10/19 06:58:14;;;;;;;11.77;4.70;;;;;;;23.12;25.30;100063.81;5070247;28;20515;-44
2022/10/19 07:00:39;;;;;;;13.73;4.90;;;;;;;22.90;25.29;100056.00;5069758;28;20031;-42
2022/10/19 07:03:04;;;;;;;8.90;4.63;;;;;;;23.24;25.08;100066.19;5069830;28;20585;-41
2022/10/19 07:05:30;;;;;;;9.93;4.70;;;;;;;23.77;24.30;100060.13;5069820;28;20016;-42
2022/10/19 07:07:56;;;;;;;10.38;4.95;;;;;;;23.96;24.02;100063.81;5069467;28;20036;-42
2022/10/19 07:10:22;;;;;;;6.85;4.60;;;;;;;24.29;23.60;100057.81;5069451;28;20037;-44
2022/10/19 07:12:47;;;;;;;10.02;5.47;;;;;;;24.24;23.71;100042.38;5068986;28;20357;-42
2022/10/19 07:15:13;;;;;;;9.32;5.43;;;;;;;24.40;23.43;100057.41;5069385;28;20167;-42
2022/10/19 07:17:38;;;;;;;15.82;5.63;;;;;;;24.70;23.17;100050.03;5069376;28;20455;-43
2022/10/19 07:20:04;;;;;;;13.45;5.53;;;;;;;24.70;23.08;100050.03;5069589;28;20090;-42
2022/10/19 07:22:29;;;;;;;10.70;4.88;;;;;;;24.69;22.86;100050.34;5069359;28;20556;-43
2022/10/19 07:24:55;;;;;;;8.98;4.50;;;;;;;24.51;22.97;100050.00;5069515;28;20490;-44
2022/10/19 07:27:20;;;;;;;10.48;4.50;;;;;;;24.43;23.26;100047.03;5069163;28;20031;-42
2022/10/19 07:29:46;;;;;;;6.60;4.30;;;;;;;24.83;22.78;100053.97;5068050;28;20063;-42
2022/10/19 07:32:11;;;;;;;9.27;4.68;;;;;;;25.05;21.73;100039.00;5069129;28;20021;-42
2022/10/19 07:34:37;;;;;;;10.65;4.53;;;;;;;24.83;21.89;100032.22;5069039;28;20020;-42
2022/10/19 07:37:02;;;;;;;8.25;4.90;;;;;;;24.55;22.59;100031.97;5069418;28;20495;-43
2022/10/19 07:39:28;;;;;;;9.07;4.25;;;;;;;24.75;22.63;100022.78;5069072;28;20028;-45
2022/10/19 07:41:53;;;;;;;8.75;4.10;;;;;;;24.64;22.54;100025.94;5069014;28;20253;-42
2022/10/19 07:44:18;;;;;;;10.70;4.70;;;;;;;24.54;22.33;100027.66;5069288;28;20082;-42
2022/10/19 07:46:44;;;;;;;10.55;4.80;;;;;;;24.35;22.70;100015.84;5069373;28;20033;-44
2022/10/19 07:49:15;;;;;;;8.10;4.28;;;;;;;24.41;22.95;100025.59;5069246;28;20044;-43
2022/10/19 07:51:40;;;;;;;7.82;4.53;;;;;;;24.53;22.73;100017.88;5069270;28;20090;-44
2022/10/19 07:54:06;;;;;;;9.68;4.68;;;;;;;25.04;22.41;100016.41;5069093;28;20025;-45
2022/10/19 07:56:31;;;;;;;11.63;4.82;;;;;;;25.27;21.53;100013.97;5068982;28;20024;-44
2022/10/19 07:58:59;;;;;;;15.95;5.00;;;;;;;23.99;23.12;100006.19;5068484;28;20029;-45
2022/10/19 08:01:30;;;;;;;13.15;4.78;;;;;;;24.22;23.11;100008.38;5069089;28;20082;-46
2022/10/19 08:03:57;;;;;;;11.23;4.97;;;;;;;24.40;23.06;100004.94;5069380;28;20039;-44
2022/10/19 08:06:23;;;;;;;13.32;4.43;;;;;;;24.83;22.44;99998.72;5069654;28;20047;-45
2022/10/19 08:08:49;;;;;;;10.52;4.72;;;;;;;24.98;22.48;99999.34;5069170;28;20480;-42
2022/10/19 08:11:18;;;;;;;7.22;4.60;;;;;;;25.21;22.29;99996.84;5069106;28;20028;-43
2022/10/19 08:13:44;;;;;;;9.93;4.57;;;;;;;25.58;21.81;99997.94;5069197;28;20421;-47
2022/10/19 08:16:32;;;;;;;9.70;4.45;;;;;;;24.97;22.56;99988.75;5069375;28;20024;-47
2022/10/19 08:19:00;;;;;;;7.40;4.28;;;;;;;25.63;21.67;99988.88;5069040;28;20119;-45
2022/10/19 08:21:28;;;;;;;36.83;23.20;;;;;;;25.84;21.45;99990.16;5068845;28;20061;-44
2022/10/19 08:23:57;;;;;;;13.18;7.68;;;;;;;25.59;21.38;99982.38;5069011;28;20037;-43
2022/10/19 08:26:23;;;;;;;11.15;5.28;;;;;;;25.50;21.24;99985.00;5068778;28;20027;-44
2022/10/19 08:28:48;;;;;;;6.47;4.53;;;;;;;25.53;21.43;99974.31;5068513;28;20036;-43
2022/10/19 08:31:20;;;;;;;11.77;4.75;;;;;;;25.90;21.25;99974.50;5068368;28;20364;-44
2022/10/19 08:33:47;;;;;;;9.43;5.03;;;;;;;25.61;20.86;99966.56;5068922;28;20016;-45
2022/10/19 08:36:14;;;;;;;5.88;4.07;;;;;;;25.98;22.99;99968.38;5067936;28;20107;-43
2022/10/19 08:38:43;;;;;;;8.48;5.07;;;;;;;26.25;20.87;99959.41;5067852;28;20036;-44
2022/10/19 08:41:27;;;;;;;8.63;4.63;;;;;;;25.99;20.97;99964.56;5067410;28;20373;-44
2022/10/19 08:44:11;;;;;;;11.02;4.95;;;;;;;25.70;21.74;99959.31;5067269;28;20456;-43
2022/10/19 08:47:08;;;;;;;14.82;5.57;;;;;;;26.10;21.14;99962.44;5067981;28;20436;-43
2022/10/19 08:49:34;;;;;;;10.68;5.38;;;;;;;25.54;21.38;99956.84;5067168;28;20334;-43
2022/10/19 08:52:05;;;;;;;7.75;5.60;;;;;;;24.56;22.51;99940.31;5065774;28;20028;-45
2022/10/19 08:55:01;;;;;;;12.23;5.03;;;;;;;25.29;22.56;99940.94;5068299;28;20073;-46
2022/10/19 08:57:57;;;;;;;8.27;4.65;;;;;;;25.63;22.95;99943.38;5067445;28;20518;-44
2022/10/19 09:00:39;;;;;;;8.88;4.82;;;;;;;25.97;22.07;99949.59;5067200;28;20089;-43
2022/10/19 09:03:22;;;;;;;9.63;5.20;;;;;;;26.41;21.06;99943.56;5066386;28;20017;-43
2022/10/19 09:06:02;;;;;;;8.88;4.45;;;;;;;26.47;20.96;99947.00;5066938;28;20025;-43
2022/10/19 09:08:27;;;;;;;9.32;4.60;;;;;;;26.60;20.85;99946.19;5066934;28;20025;-43
2022/10/19 09:10:54;;;;;;;9.45;6.18;;;;;;;26.41;22.05;99950.94;5069023;28;20108;-43
2022/10/19 09:13:37;;;;;;;11.20;4.60;;;;;;;26.27;20.89;99943.59;5071957;28;20094;-43
2022/10/19 09:16:04;;;;;;;11.43;4.68;;;;;;;25.30;21.73;99935.19;5072052;28;20028;-42
2022/10/19 09:18:32;;;;;;;12.07;4.70;;;;;;;25.16;21.70;99926.94;5073321;28;20062;-42
2022/10/19 09:21:22;;;;;;;13.18;4.82;;;;;;;25.56;21.53;99932.84;5072984;28;20451;-42
2022/10/19 09:24:26;;;;;;;9.45;4.60;;;;;;;26.16;21.22;99930.44;5072874;28;20436;-44
2022/10/19 09:26:55;;;;;;;11.00;4.70;;;;;;;25.85;21.17;99925.53;5048800;28;20029;-42
2022/10/19 09:29:31;;;;;;;8.85;4.40;;;;;;;25.73;20.96;99910.47;5051219;28;20128;-44
2022/10/19 09:31:59;;;;;;;11.68;4.57;;;;;;;24.89;21.91;99914.00;5051360;28;20060;-44
2022/10/19 09:34:33;;;;;;;9.95;5.00;;;;;;;25.02;21.97;99912.47;5051430;28;20021;-44
2022/10/19 09:36:59;;;;;;;10.82;4.75;;;;;;;24.18;22.51;99908.38;5069938;28;20128;-43
2022/10/19 09:39:27;;;;;;;6.90;4.38;;;;;;;23.88;23.53;99908.75;5071746;28;20028;-43
2022/10/19 09:42:16;;;;;;;5.93;3.97;;;;;;;24.61;22.64;99895.91;5071680;28;20031;-43
2022/10/19 09:44:42;;;;;;;10.52;4.57;;;;;;;25.66;21.84;99907.34;5070825;28;20062;-43
2022/10/19 09:47:36;;;;;;;8.95;4.22;;;;;;;25.90;21.18;99896.25;5069435;28;20385;-43
2022/10/19 09:50:23;;;;;;;11.25;4.35;;;;;;;25.94;20.90;99896.50;5069164;28;20416;-42
2022/10/19 09:52:51;;;;;;;8.77;4.38;;;;;;;25.39;21.55;99890.94;5069460;28;20024;-42
2022/10/19 09:55:39;;;;;;;8.07;4.40;;;;;;;25.29;21.79;99890.00;5069303;28;20028;-41
2022/10/19 09:58:13;;;;;;;5.38;4.28;;;;;;;25.07;21.95;99884.34;5069958;28;20112;-43
2022/10/19 10:00:44;;;;;;;8.43;4.22;;;;;;;25.32;21.73;99881.25;5070233;28;20100;-43
2022/10/19 10:03:32;;;;;;;8.68;4.22;;;;;;;25.24;21.82;99872.94;5071009;28;20567;-43
2022/10/19 10:06:02;;;;;;;13.48;4.85;;;;;;;25.63;22.06;99869.81;5071669;28;20036;-43
2022/10/19 10:08:32;;;;;;;8.27;4.35;;;;;;;26.14;21.25;99862.56;5071036;28;20029;-44
2022/10/19 10:11:12;;;;;;;11.88;4.30;;;;;;;26.54;20.86;99862.81;5070951;28;20103;-43
2022/10/19 10:13:40;;;;;;;13.88;4.30;;;;;;;26.56;20.25;99863.31;5070950;28;20093;-43
2022/10/19 10:16:09;;;;;;;8.73;4.70;;;;;;;26.42;21.14;99863.31;5070735;28;20081;-43
2022/10/19 10:19:05;;;;;;;10.32;4.07;;;;;;;26.90;19.94;99862.00;5070862;28;20052;-43
2022/10/19 10:21:34;;;;;;;13.77;4.40;;;;;;;27.04;20.25;99854.56;5069850;28;20080;-42
2022/10/19 10:23:59;;;;;;;11.35;4.30;;;;;;;27.05;20.72;99847.97;5070131;28;20036;-43
2022/10/19 10:26:25;;;;;;;7.22;4.25;;;;;;;26.66;21.25;99841.28;5070666;28;20028;-43
2022/10/19 10:28:51;;;;;;;7.53;4.13;;;;;;;27.21;20.30;99828.50;5070631;28;20028;-42
2022/10/19 10:31:23;;;;;;;7.47;4.18;;;;;;;27.61;19.78;99832.09;5070138;28;20078;-42
2022/10/19 10:34:00;;;;;;;7.78;4.65;;;;;;;27.84;19.65;99832.81;5070230;28;20320;-43
2022/10/19 10:36:28;;;;;;;8.38;4.00;;;;;;;28.13;19.04;99819.72;5069858;28;20024;-43
2022/10/19 10:39:02;;;;;;;13.10;4.90;;;;;;;27.69;19.52;99820.38;5069860;28;20482;-44
2022/10/19 10:41:28;;;;;;;14.95;9.68;;;;;;;27.20;19.40;99813.22;5070121;28;20028;-43
2022/10/19 10:44:01;;;;;;;13.52;7.05;;;;;;;25.83;20.82;99811.34;5070399;28;20039;-42
2022/10/19 10:46:33;;;;;;;6.05;4.30;;;;;;;25.83;20.59;99816.00;5070627;28;20480;-41
2022/10/19 10:49:02;;;;;;;10.05;4.32;;;;;;;25.82;20.73;99798.06;5070003;28;20028;-43
2022/10/19 10:51:33;;;;;;;10.18;4.40;;;;;;;26.22;21.01;99801.06;5070148;28;20111;-43
2022/10/19 10:54:13;;;;;;;7.55;4.10;;;;;;;26.25;20.59;99794.97;5070141;28;20067;-43
2022/10/19 10:56:42;;;;;;;8.65;3.97;;;;;;;26.21;21.14;99786.59;5069911;28;20024;-41
2022/10/19 10:59:18;;;;;;;8.95;3.95;;;;;;;26.96;20.22;99778.88;5070034;28;20142;-43
2022/10/19 11:02:22;;;;;;;7.95;3.80;;;;;;;27.20;20.26;99786.69;5069523;28;20032;-45
2022/10/19 11:04:54;;;;;;;8.75;3.70;;;;;;;27.48;20.01;99776.41;5069750;28;20527;-42
2022/10/19 11:07:24;;;;;;;5.13;3.08;;;;;;;27.91;19.90;99771.41;5069883;28;20519;-43
2022/10/19 11:10:19;;;;;;;6.07;3.50;;;;;;;28.47;19.12;99764.22;5069875;28;20020;-43
2022/10/19 11:12:50;;;;;;;5.97;3.30;;;;;;;28.42;19.07;99767.09;5060153;28;20039;-43
2022/10/19 11:15:22;;;;;;;7.55;3.58;;;;;;;28.45;19.55;99767.28;5068274;28;20400;-42
2022/10/19 11:18:15;;;;;;;9.88;3.35;;;;;;;28.96;18.47;99764.00;5069296;28;20024;-43
2022/10/19 11:20:51;;;;;;;6.82;3.63;;;;;;;28.54;18.42;99753.63;5066221;28;20041;-45
2022/10/19 11:23:38;;;;;;;7.43;3.80;;;;;;;28.37;18.98;99753.59;5069354;28;20116;-42
2022/10/19 11:26:12;;;;;;;10.57;3.33;;;;;;;28.57;19.23;99750.22;5069724;28;20051;-44
2022/10/19 11:28:53;;;;;;;5.93;3.17;;;;;;;28.68;18.68;99750.69;5069500;28;20488;-42
2022/10/19 11:31:44;;;;;;;4.75;3.20;;;;;;;28.64;18.82;99742.34;5069559;28;20024;-42
2022/10/19 11:34:42;;;;;;;6.20;3.30;;;;;;;28.71;18.72;99741.84;5066440;28;20044;-42
2022/10/19 11:37:26;;;;;;;4.88;3.10;;;;;;;28.51;18.25;99739.75;5069337;28;20016;-44
2022/10/19 11:40:11;;;;;;;6.07;2.83;;;;;;;28.55;18.51;99727.84;5069422;28;20024;-45